Time;durP1;ratioP1;P1;durP2;ratioP2;P2;SDS_P1;SDS_P2;PMS_P1;PMS_P2;Temp;Humidity;BMP_temperature;BMP_pressure;BME280_temperature;BME280_humidity;BME280_pressure;Samples;Min_cycle;Max_cycle;Signal;HPM_P1;HPM_P2
2022/05/18 00:01:42;;;;;;;;;;;24.40;51.80;;;;;;6171561;28;20067;-53
2022/05/18 00:04:43;;;;;;;;;;;24.50;51.30;;;;;;6176039;28;19921;-50
2022/05/18 00:07:44;;;;;;;;;;;24.40;51.30;;;;;;6179291;28;19999;-51
2022/05/18 00:10:47;;;;;;;;;;;24.50;51.30;;;;;;6181664;28;19935;-55
2022/05/18 00:13:50;;;;;;;;;;;24.70;51.40;;;;;;6171388;28;19969;-53
2022/05/18 00:16:52;;;;;;;;;;;24.40;51.20;;;;;;6169697;28;19925;-52
2022/05/18 00:19:53;;;;;;;;;;;24.50;51.30;;;;;;6176563;28;19929;-52
2022/05/18 00:22:56;;;;;;;;;;;24.50;51.30;;;;;;6177719;28;20028;-56
2022/05/18 00:25:57;;;;;;;;;;;24.40;51.20;;;;;;6165548;28;19968;-52
2022/05/18 00:28:59;;;;;;;;;;;24.50;51.30;;;;;;6183146;28;19922;-50
2022/05/18 00:32:01;;;;;;;;;;;24.40;51.30;;;;;;6181129;28;19921;-53
2022/05/18 00:35:03;;;;;;;;;;;24.20;51.20;;;;;;6169664;28;19925;-54
2022/05/18 00:38:07;;;;;;;;;;;24.10;51.10;;;;;;6176670;28;20795;-54
2022/05/18 00:41:09;;;;;;;;;;;24.40;51.20;;;;;;6177774;28;20342;-51
2022/05/18 00:44:11;;;;;;;;;;;24.10;51.10;;;;;;6179947;28;20294;-53
2022/05/18 00:47:13;;;;;;;;;;;24.40;51.30;;;;;;6146936;28;20051;-50
2022/05/18 00:50:32;;;;;;;;;;;24.30;51.20;;;;;;6171878;28;19930;-57
2022/05/18 00:53:35;;;;;;;;;;;24.40;51.30;;;;;;6176800;28;20063;-52
2022/05/18 00:56:40;;;;;;;;;;;24.40;51.30;;;;;;6172179;28;20055;-52
2022/05/18 00:59:44;;;;;;;;;;;24.30;51.20;;;;;;6180065;28;21853;-55
2022/05/18 01:02:49;;;;;;;;;;;24.20;51.20;;;;;;6161941;28;19937;-51
2022/05/18 01:05:54;;;;;;;;;;;24.30;51.30;;;;;;6183589;28;19968;-53
2022/05/18 01:08:58;;;;;;;;;;;24.00;51.10;;;;;;6166018;28;19928;-54
2022/05/18 01:12:00;;;;;;;;;;;24.20;51.20;;;;;;6185186;28;20080;-54
2022/05/18 01:15:03;;;;;;;;;;;24.10;51.20;;;;;;6184289;28;21123;-56
2022/05/18 01:18:04;;;;;;;;;;;24.30;51.30;;;;;;6188164;28;19936;-54
2022/05/18 01:21:05;;;;;;;;;;;24.10;51.20;;;;;;6187654;28;19980;-52
2022/05/18 01:24:12;;;;;;;;;;;24.30;51.30;;;;;;6185537;28;19930;-52
2022/05/18 01:27:14;;;;;;;;;;;24.00;51.20;;;;;;6178058;28;19992;-52
2022/05/18 01:30:15;;;;;;;;;;;24.20;51.30;;;;;;6182761;28;19929;-53
2022/05/18 01:33:18;;;;;;;;;;;24.00;51.20;;;;;;6179945;28;20048;-53
2022/05/18 01:36:19;;;;;;;;;;;24.30;51.40;;;;;;6177667;28;20030;-53
2022/05/18 01:39:22;;;;;;;;;;;24.00;51.20;;;;;;6182496;28;20122;-50
2022/05/18 01:42:28;;;;;;;;;;;24.20;51.30;;;;;;6184193;28;20043;-49
2022/05/18 01:45:29;;;;;;;;;;;24.00;51.20;;;;;;6178412;28;20003;-55
2022/05/18 01:48:32;;;;;;;;;;;24.10;51.30;;;;;;6182340;28;19929;-51
2022/05/18 01:51:34;;;;;;;;;;;23.90;51.20;;;;;;6186982;28;19924;-53
2022/05/18 01:54:38;;;;;;;;;;;24.00;51.20;;;;;;6169675;28;20047;-52
2022/05/18 01:57:39;;;;;;;;;;;24.20;51.30;;;;;;6186574;28;20922;-54
2022/05/18 02:00:41;;;;;;;;;;;24.50;51.50;;;;;;6183886;28;19929;-52
2022/05/18 02:03:42;;;;;;;;;;;24.10;51.30;;;;;;6190280;28;19933;-52
2022/05/18 02:06:44;;;;;;;;;;;24.20;51.40;;;;;;6192702;28;19929;-54
2022/05/18 02:09:45;;;;;;;;;;;24.00;51.30;;;;;;6188478;28;19956;-51
2022/05/18 02:12:47;;;;;;;;;;;24.10;51.90;;;;;;6190468;28;20050;-52
2022/05/18 02:15:49;;;;;;;;;;;24.00;51.30;;;;;;6192873;28;19971;-52
2022/05/18 02:18:50;;;;;;;;;;;23.80;51.20;;;;;;6191247;28;19932;-52
2022/05/18 02:21:51;;;;;;;;;;;23.90;51.30;;;;;;6187095;28;19929;-51
2022/05/18 02:24:54;;;;;;;;;;;23.90;51.30;;;;;;6191340;28;21463;-52
2022/05/18 02:27:55;;;;;;;;;;;24.00;51.30;;;;;;6193174;28;20022;-51
2022/05/18 02:30:57;;;;;;;;;;;23.80;51.20;;;;;;6192486;28;20858;-53
2022/05/18 02:33:58;;;;;;;;;;;24.00;51.40;;;;;;6182144;28;20673;-51
2022/05/18 02:37:00;;;;;;;;;;;23.80;51.30;;;;;;6181121;28;19929;-53
2022/05/18 02:40:01;;;;;;;;;;;23.80;51.30;;;;;;6195951;28;19998;-52
2022/05/18 02:43:03;;;;;;;;;;;23.80;51.40;;;;;;6173172;28;20804;-54
2022/05/18 02:46:05;;;;;;;;;;;24.00;51.40;;;;;;6190761;28;20771;-52
2022/05/18 02:49:07;;;;;;;;;;;23.70;51.30;;;;;;6183966;28;19925;-55
2022/05/18 02:52:08;;;;;;;;;;;23.70;51.30;;;;;;6191050;28;20743;-58
2022/05/18 02:58:27;;;;;;;;;;;24.00;51.50;;;;;;6175959;28;20876;-51
2022/05/18 03:01:28;;;;;;;;;;;23.60;51.30;;;;;;6188396;28;20957;-50
2022/05/18 03:04:30;;;;;;;;;;;24.20;51.60;;;;;;6189909;28;19931;-56
2022/05/18 03:07:32;;;;;;;;;;;23.50;51.30;;;;;;6190839;28;20003;-51
2022/05/18 03:10:36;;;;;;;;;;;23.80;51.50;;;;;;6184257;28;19921;-56
2022/05/18 03:13:38;;;;;;;;;;;23.60;51.30;;;;;;6188653;28;19929;-57
2022/05/18 03:16:40;;;;;;;;;;;23.80;51.80;;;;;;6189687;28;20802;-55
2022/05/18 03:19:41;;;;;;;;;;;23.50;51.60;;;;;;6188989;28;19929;-56
2022/05/18 03:25:55;;;;;;;;;;;24.10;51.90;;;;;;6186713;28;20849;-54
2022/05/18 03:28:57;;;;;;;;;;;24.30;51.90;;;;;;6186922;28;19927;-57
2022/05/18 03:31:59;;;;;;;;;;;23.60;51.60;;;;;;6192365;28;20009;-56
2022/05/18 03:35:00;;;;;;;;;;;23.90;51.90;;;;;;6168789;28;19936;-55
2022/05/18 03:38:05;;;;;;;;;;;23.60;51.70;;;;;;6186926;28;19927;-56
2022/05/18 03:41:08;;;;;;;;;;;23.80;51.80;;;;;;6182559;28;19924;-55
2022/05/18 03:44:10;;;;;;;;;;;23.40;51.60;;;;;;6187484;28;19925;-55
2022/05/18 03:47:11;;;;;;;;;;;23.70;51.70;;;;;;6164814;28;19964;-55
2022/05/18 03:50:13;;;;;;;;;;;24.00;51.90;;;;;;6188344;28;20106;-56
2022/05/18 03:53:15;;;;;;;;;;;23.80;51.80;;;;;;6186957;28;19968;-53
2022/05/18 03:56:16;;;;;;;;;;;23.60;51.60;;;;;;6185520;28;20034;-54
2022/05/18 03:59:18;;;;;;;;;;;23.50;51.70;;;;;;6191219;28;19987;-54
2022/05/18 04:02:20;;;;;;;;;;;23.70;51.80;;;;;;6188163;28;20007;-53
2022/05/18 04:05:21;;;;;;;;;;;23.80;51.80;;;;;;6188218;28;19925;-52
2022/05/18 04:08:23;;;;;;;;;;;23.80;51.80;;;;;;6171683;28;20022;-54
2022/05/18 04:11:24;;;;;;;;;;;23.80;51.80;;;;;;6188878;28;19998;-54
2022/05/18 04:14:26;;;;;;;;;;;23.50;51.70;;;;;;6184343;28;19925;-56
2022/05/18 04:17:28;;;;;;;;;;;23.30;51.50;;;;;;6185064;28;21613;-55
2022/05/18 04:20:30;;;;;;;;;;;23.80;51.80;;;;;;6171710;28;20971;-53
2022/05/18 04:23:31;;;;;;;;;;;23.90;51.90;;;;;;6185924;28;20024;-53
2022/05/18 04:26:33;;;;;;;;;;;23.80;51.90;;;;;;6186269;28;19929;-52
2022/05/18 04:29:35;;;;;;;;;;;23.70;51.80;;;;;;6169958;28;20762;-52
2022/05/18 04:32:39;;;;;;;;;;;23.40;51.60;;;;;;6171369;28;19971;-54
2022/05/18 04:35:41;;;;;;;;;;;23.70;51.60;;;;;;6185495;28;19928;-54
2022/05/18 04:38:43;;;;;;;;;;;23.70;51.80;;;;;;6180918;28;19964;-56
2022/05/18 04:41:44;;;;;;;;;;;23.60;51.70;;;;;;6182698;28;20033;-56
2022/05/18 04:44:46;;;;;;;;;;;23.50;51.70;;;;;;6185168;28;19929;-53
2022/05/18 04:47:47;;;;;;;;;;;23.40;51.60;;;;;;6168950;28;19933;-54
2022/05/18 04:50:49;;;;;;;;;;;23.70;51.80;;;;;;6175985;28;19928;-54
2022/05/18 04:53:51;;;;;;;;;;;23.80;51.80;;;;;;6166171;28;20791;-53
2022/05/18 04:56:52;;;;;;;;;;;23.60;51.80;;;;;;6173674;28;19960;-53
2022/05/18 04:59:54;;;;;;;;;;;23.70;51.80;;;;;;6176522;28;19925;-56
2022/05/18 05:02:57;;;;;;;;;;;23.20;51.50;;;;;;6183410;28;19983;-53
2022/05/18 05:05:59;;;;;;;;;;;23.60;51.80;;;;;;6178675;28;19921;-56
2022/05/18 05:09:00;;;;;;;;;;;23.50;51.70;;;;;;6182276;28;19929;-54
2022/05/18 05:12:02;;;;;;;;;;;23.60;51.80;;;;;;6177018;28;19937;-53
2022/05/18 05:15:04;;;;;;;;;;;23.50;51.70;;;;;;6184472;28;20103;-55
2022/05/18 05:18:06;;;;;;;;;;;23.70;51.90;;;;;;6184890;28;20372;-54
2022/05/18 05:21:07;;;;;;;;;;;23.30;51.60;;;;;;6185616;28;19936;-53
2022/05/18 05:24:09;;;;;;;;;;;23.50;51.80;;;;;;6187240;28;20052;-55
2022/05/18 05:27:10;;;;;;;;;;;23.80;51.90;;;;;;6165508;28;20012;-57
2022/05/18 05:30:13;;;;;;;;;;;23.50;51.80;;;;;;6183890;28;19922;-53
2022/05/18 05:33:14;;;;;;;;;;;23.60;51.80;;;;;;6185252;28;20057;-51
2022/05/18 05:36:16;;;;;;;;;;;23.40;51.80;;;;;;6180525;28;20126;-54
2022/05/18 05:39:20;;;;;;;;;;;23.60;51.80;;;;;;6186314;28;20716;-59
2022/05/18 05:42:21;;;;;;;;;;;23.70;51.90;;;;;;6184144;28;19921;-55
2022/05/18 05:45:23;;;;;;;;;;;23.40;51.70;;;;;;6181244;28;19929;-54
2022/05/18 05:48:26;;;;;;;;;;;23.40;51.60;;;;;;6173322;28;20856;-55
2022/05/18 05:51:27;;;;;;;;;;;23.90;51.80;;;;;;6161132;28;20027;-52
2022/05/18 05:54:29;;;;;;;;;;;23.70;51.70;;;;;;6184274;28;19929;-56
2022/05/18 05:57:30;;;;;;;;;;;23.50;51.60;;;;;;6182747;28;19929;-53
2022/05/18 06:00:32;;;;;;;;;;;23.70;51.60;;;;;;6180950;28;19929;-54
2022/05/18 06:03:34;;;;;;;;;;;23.60;51.60;;;;;;6175316;28;19935;-55
2022/05/18 06:06:37;;;;;;;;;;;23.80;51.60;;;;;;6167206;28;19931;-54
2022/05/18 06:09:42;;;;;;;;;;;23.50;51.50;;;;;;6185027;28;19921;-56
2022/05/18 06:12:43;;;;;;;;;;;23.60;51.40;;;;;;6174104;28;19936;-54
2022/05/18 06:15:47;;;;;;;;;;;23.60;51.40;;;;;;6177352;28;19929;-55
2022/05/18 06:18:49;;;;;;;;;;;23.80;51.50;;;;;;6157003;28;20951;-53
2022/05/18 06:21:50;;;;;;;;;;;23.60;51.40;;;;;;6152884;28;19933;-55
2022/05/18 06:24:52;;;;;;;;;;;23.70;51.50;;;;;;6157591;28;19925;-54
2022/05/18 06:27:53;;;;;;;;;;;23.60;51.40;;;;;;6156594;28;20044;-58
2022/05/18 06:30:55;;;;;;;;;;;23.80;51.50;;;;;;6137756;28;19963;-58
2022/05/18 06:33:56;;;;;;;;;;;23.90;51.60;;;;;;6131980;28;19932;-57
2022/05/18 06:36:58;;;;;;;;;;;23.70;51.40;;;;;;6137092;28;19933;-57
2022/05/18 06:40:01;;;;;;;;;;;23.90;51.50;;;;;;6139343;28;19929;-57
2022/05/18 06:43:03;;;;;;;;;;;23.90;51.50;;;;;;6132480;28;20055;-52
2022/05/18 06:46:05;;;;;;;;;;;23.90;51.50;;;;;;6103568;28;19979;-55
2022/05/18 06:49:12;;;;;;;;;;;23.90;51.50;;;;;;6108435;28;19925;-53
2022/05/18 06:52:13;;;;;;;;;;;24.00;51.50;;;;;;6089059;28;20552;-54
2022/05/18 06:55:14;;;;;;;;;;;23.90;51.40;;;;;;6083566;28;20443;-53
2022/05/18 06:58:16;;;;;;;;;;;24.00;51.40;;;;;;6071193;28;19935;-58
2022/05/18 07:01:18;;;;;;;;;;;24.00;51.40;;;;;;6051882;28;28642;-58
2022/05/18 07:04:20;;;;;;;;;;;23.80;51.30;;;;;;6023445;28;20666;-59
2022/05/18 07:07:21;;;;;;;;;;;23.90;51.30;;;;;;6054071;28;19967;-55
2022/05/18 07:10:26;;;;;;;;;;;23.80;51.30;;;;;;6028541;28;21400;-51
2022/05/18 07:13:28;;;;;;;;;;;24.00;51.30;;;;;;6018021;28;20063;-55
2022/05/18 07:16:30;;;;;;;;;;;23.80;51.20;;;;;;5995509;28;21032;-54
2022/05/18 07:19:31;;;;;;;;;;;24.00;51.20;;;;;;6018523;28;23240;-51
2022/05/18 07:22:33;;;;;;;;;;;24.10;51.20;;;;;;6005029;28;20103;-56
2022/05/18 07:25:34;;;;;;;;;;;24.00;51.20;;;;;;6023527;28;19928;-56
2022/05/18 07:28:36;;;;;;;;;;;24.00;51.00;;;;;;6022428;28;19928;-56
2022/05/18 07:35:03;;;;;;;;;;;24.20;51.80;;;;;;6013335;28;20049;-49
2022/05/18 07:38:05;;;;;;;;;;;24.10;51.10;;;;;;5995572;28;19935;-56
2022/05/18 07:48:54;;;;;;;;;;;24.20;50.90;;;;;;5983659;28;19936;-57
2022/05/18 07:51:55;;;;;;;;;;;24.30;51.00;;;;;;5995842;28;19937;-54
2022/05/18 07:54:57;;;;;;;;;;;24.30;51.00;;;;;;6014093;28;20067;-54
2022/05/18 07:57:58;;;;;;;;;;;24.30;50.50;;;;;;5976559;28;19929;-57
2022/05/18 08:00:59;;;;;;;;;;;24.30;50.90;;;;;;5988390;28;23121;-57
2022/05/18 08:04:02;;;;;;;;;;;24.20;50.80;;;;;;5940461;28;19983;-60
2022/05/18 08:07:07;;;;;;;;;;;24.30;50.80;;;;;;5977105;28;27574;-59
2022/05/18 08:16:42;;;;;;;;;;;24.30;50.70;;;;;;6006970;28;27991;-54
2022/05/18 08:19:46;;;;;;;;;;;24.40;50.70;;;;;;6014104;28;19960;-59
2022/05/18 08:22:47;;;;;;;;;;;24.50;50.80;;;;;;6015118;28;20100;-57
2022/05/18 08:25:49;;;;;;;;;;;24.40;50.70;;;;;;6013421;28;26082;-58
2022/05/18 08:28:50;;;;;;;;;;;24.30;50.60;;;;;;6001960;28;19930;-59
2022/05/18 08:31:52;;;;;;;;;;;24.40;50.70;;;;;;6000320;28;19960;-56
2022/05/18 08:34:54;;;;;;;;;;;24.50;50.70;;;;;;6034257;28;19929;-57
2022/05/18 08:37:56;;;;;;;;;;;24.50;50.80;;;;;;6027341;28;19937;-58
2022/05/18 08:40:59;;;;;;;;;;;24.60;51.50;;;;;;5998108;28;19929;-58
2022/05/18 08:44:03;;;;;;;;;;;24.40;50.70;;;;;;6003707;28;21848;-57
2022/05/18 08:47:09;;;;;;;;;;;24.70;50.80;;;;;;6010714;28;19932;-57
2022/05/18 08:50:13;;;;;;;;;;;24.60;50.80;;;;;;6017920;28;20047;-61
2022/05/18 08:53:22;;;;;;;;;;;24.70;50.70;;;;;;6030409;28;20047;-57
2022/05/18 08:56:26;;;;;;;;;;;24.20;50.40;;;;;;6012695;28;23126;-54
2022/05/18 08:59:30;;;;;;;;;;;24.80;50.70;;;;;;6017502;28;20914;-60
2022/05/18 09:02:33;;;;;;;;;;;24.70;50.70;;;;;;5974535;28;20052;-56
2022/05/18 09:05:38;;;;;;;;;;;24.60;50.60;;;;;;5975337;28;19936;-57
2022/05/18 09:08:40;;;;;;;;;;;24.70;50.70;;;;;;5998252;28;19935;-57
2022/05/18 09:11:42;;;;;;;;;;;24.70;50.70;;;;;;5995714;28;19933;-54
2022/05/18 09:14:45;;;;;;;;;;;24.80;50.70;;;;;;6014514;28;19937;-59
2022/05/18 09:17:51;;;;;;;;;;;24.20;50.50;;;;;;6032390;28;20675;-55
2022/05/18 09:21:00;;;;;;;;;;;24.70;50.70;;;;;;5989746;28;19929;-58
2022/05/18 09:24:07;;;;;;;;;;;24.70;50.80;;;;;;6001968;28;20029;-55
2022/05/18 09:27:17;;;;;;;;;;;24.70;50.90;;;;;;6024358;28;20247;-55
2022/05/18 09:30:21;;;;;;;;;;;24.50;50.80;;;;;;6003318;28;36384;-52
2022/05/18 09:33:28;;;;;;;;;;;24.70;50.90;;;;;;5994033;28;25739;-56
2022/05/18 09:36:44;;;;;;;;;;;24.80;50.90;;;;;;6007838;28;19929;-55
2022/05/18 09:39:49;;;;;;;;;;;24.80;50.90;;;;;;6000885;28;20052;-56
2022/05/18 09:42:53;;;;;;;;;;;24.80;51.00;;;;;;5985237;28;19928;-54
2022/05/18 09:45:55;;;;;;;;;;;24.70;50.90;;;;;;5950207;28;34365;-57
2022/05/18 09:49:11;;;;;;;;;;;24.80;50.90;;;;;;5979478;28;35680;-51
2022/05/18 09:52:14;;;;;;;;;;;24.70;50.90;;;;;;5986540;28;28074;-53
2022/05/18 09:55:17;;;;;;;;;;;24.80;50.90;;;;;;5994328;28;38956;-58
2022/05/18 09:58:22;;;;;;;;;;;24.80;50.90;;;;;;5977001;28;19929;-56
2022/05/18 10:08:20;;;;;;;;;;;24.90;50.80;;;;;;6034623;28;19948;-53
2022/05/18 10:11:24;;;;;;;;;;;24.90;50.70;;;;;;5994894;28;19928;-54
2022/05/18 10:14:29;;;;;;;;;;;24.90;50.80;;;;;;6025370;28;19939;-54
2022/05/18 10:17:32;;;;;;;;;;;24.90;50.80;;;;;;6030145;28;19929;-53
2022/05/18 10:20:35;;;;;;;;;;;25.00;50.90;;;;;;6039502;28;34088;-55
2022/05/18 10:23:48;;;;;;;;;;;24.80;50.80;;;;;;6035444;28;20055;-57
2022/05/18 10:27:05;;;;;;;;;;;24.80;50.80;;;;;;6035048;28;19929;-55
2022/05/18 10:30:09;;;;;;;;;;;24.90;50.90;;;;;;6060135;28;20003;-56
2022/05/18 10:33:19;;;;;;;;;;;24.70;50.80;;;;;;6032564;28;19928;-57
2022/05/18 10:36:24;;;;;;;;;;;24.90;50.90;;;;;;6057518;28;20840;-55
2022/05/18 10:39:36;;;;;;;;;;;24.80;50.80;;;;;;6065371;28;19929;-56
2022/05/18 10:42:44;;;;;;;;;;;24.90;50.80;;;;;;6069939;28;19968;-55
2022/05/18 10:45:53;;;;;;;;;;;24.80;50.80;;;;;;6090592;28;19928;-56
2022/05/18 10:48:55;;;;;;;;;;;24.80;50.80;;;;;;6076244;28;19936;-57
2022/05/18 10:52:08;;;;;;;;;;;24.90;50.80;;;;;;6055522;28;19936;-55
2022/05/18 10:55:14;;;;;;;;;;;24.90;50.80;;;;;;6033786;28;24117;-56
2022/05/18 10:58:24;;;;;;;;;;;24.80;50.70;;;;;;6076579;28;19929;-57
2022/05/18 11:01:27;;;;;;;;;;;24.90;50.80;;;;;;6085536;28;19953;-56
2022/05/18 11:04:34;;;;;;;;;;;24.80;50.70;;;;;;6072202;28;20012;-57
2022/05/18 11:07:35;;;;;;;;;;;24.80;50.80;;;;;;6057329;28;20875;-52
2022/05/18 11:10:39;;;;;;;;;;;24.80;50.70;;;;;;6070171;28;19935;-54
2022/05/18 11:13:46;;;;;;;;;;;24.90;50.80;;;;;;6062030;28;19929;-54
2022/05/18 11:16:52;;;;;;;;;;;24.80;50.70;;;;;;6072610;28;20555;-56
2022/05/18 11:19:56;;;;;;;;;;;24.60;50.60;;;;;;6075654;28;20047;-55
2022/05/18 11:23:00;;;;;;;;;;;24.90;50.80;;;;;;6049071;28;20091;-54
2022/05/18 11:26:07;;;;;;;;;;;25.00;50.80;;;;;;6091667;28;19936;-51
2022/05/18 11:29:36;;;;;;;;;;;24.80;50.70;;;;;;6075073;28;20712;-53
2022/05/18 11:32:45;;;;;;;;;;;24.80;50.60;;;;;;6064195;28;19929;-54
2022/05/18 11:35:51;;;;;;;;;;;24.80;50.60;;;;;;6056139;28;20021;-55
2022/05/18 11:39:03;;;;;;;;;;;24.80;50.60;;;;;;6053794;28;19929;-51
2022/05/18 11:42:15;;;;;;;;;;;24.80;50.60;;;;;;6013424;28;19931;-53
2022/05/18 11:45:20;;;;;;;;;;;24.80;50.70;;;;;;6054386;28;19979;-56
2022/05/18 11:48:24;;;;;;;;;;;24.80;51.30;;;;;;6047800;28;20059;-58
2022/05/18 11:51:33;;;;;;;;;;;24.50;50.50;;;;;;6014728;28;20016;-56
2022/05/18 11:54:42;;;;;;;;;;;24.80;50.60;;;;;;5970632;28;31015;-58
2022/05/18 11:57:47;;;;;;;;;;;24.80;50.60;;;;;;6005740;28;20496;-57
2022/05/18 12:00:56;;;;;;;;;;;24.80;50.60;;;;;;5975146;28;20083;-57
2022/05/18 12:04:08;;;;;;;;;;;24.60;50.50;;;;;;5940127;28;19929;-56
2022/05/18 12:07:16;;;;;;;;;;;24.60;50.50;;;;;;5930057;28;20051;-54
2022/05/18 12:10:24;;;;;;;;;;;24.80;50.60;;;;;;5947951;28;22432;-54
2022/05/18 12:13:29;;;;;;;;;;;24.80;50.60;;;;;;5976735;28;19929;-56
2022/05/18 12:16:34;;;;;;;;;;;24.60;50.40;;;;;;5933484;28;21715;-55
2022/05/18 12:19:38;;;;;;;;;;;24.90;50.60;;;;;;5947635;28;19929;-51
2022/05/18 12:22:42;;;;;;;;;;;24.90;50.50;;;;;;5906323;28;20026;-52
2022/05/18 12:25:43;;;;;;;;;;;25.10;50.50;;;;;;5953658;28;19929;-55
2022/05/18 12:28:45;;;;;;;;;;;24.90;50.40;;;;;;5979650;28;19991;-53
2022/05/18 12:31:48;;;;;;;;;;;24.90;50.40;;;;;;5976975;28;19935;-54
2022/05/18 12:34:56;;;;;;;;;;;24.90;50.40;;;;;;5964015;28;20066;-58
2022/05/18 12:38:05;;;;;;;;;;;25.00;50.40;;;;;;5960353;28;19936;-52
2022/05/18 12:41:09;;;;;;;;;;;24.90;50.30;;;;;;5940417;28;19936;-52
2022/05/18 12:44:11;;;;;;;;;;;25.10;50.90;;;;;;5999144;28;19975;-53
2022/05/18 12:47:24;;;;;;;;;;;24.90;50.30;;;;;;5935974;28;19929;-53
2022/05/18 12:50:30;;;;;;;;;;;25.00;50.40;;;;;;5944806;28;19929;-50
2022/05/18 12:53:40;;;;;;;;;;;25.00;50.50;;;;;;5987228;28;19969;-56
2022/05/18 12:56:50;;;;;;;;;;;25.00;50.30;;;;;;5974769;28;19935;-54
2022/05/18 13:00:01;;;;;;;;;;;24.90;50.40;;;;;;5936604;28;19929;-53
2022/05/18 13:03:20;;;;;;;;;;;25.10;50.30;;;;;;5914148;28;19936;-60
2022/05/18 13:06:29;;;;;;;;;;;25.00;50.20;;;;;;5930544;28;19929;-49
2022/05/18 13:09:34;;;;;;;;;;;25.20;50.90;;;;;;5962105;28;20006;-54
2022/05/18 13:12:41;;;;;;;;;;;25.20;50.90;;;;;;5952801;28;22268;-54
2022/05/18 13:15:55;;;;;;;;;;;25.30;50.30;;;;;;5982020;28;19929;-53
2022/05/18 13:18:59;;;;;;;;;;;25.20;50.20;;;;;;5985990;28;19930;-54
2022/05/18 13:22:06;;;;;;;;;;;25.20;50.40;;;;;;5960414;28;19972;-57
2022/05/18 13:25:10;;;;;;;;;;;25.30;49.80;;;;;;5964111;28;19930;-52
2022/05/18 13:28:13;;;;;;;;;;;25.20;50.20;;;;;;5986507;28;20014;-51
2022/05/18 13:31:15;;;;;;;;;;;25.20;50.20;;;;;;5965785;28;21229;-53
2022/05/18 13:34:19;;;;;;;;;;;25.30;50.20;;;;;;5981889;28;19987;-53
2022/05/18 13:37:21;;;;;;;;;;;25.20;50.10;;;;;;5967885;28;20067;-49
2022/05/18 13:40:45;;;;;;;;;;;25.30;50.10;;;;;;5946295;28;20063;-53
2022/05/18 13:43:46;;;;;;;;;;;25.40;50.20;;;;;;5965354;28;20059;-51
2022/05/18 13:46:49;;;;;;;;;;;25.30;50.10;;;;;;5981510;28;21034;-52
2022/05/18 13:50:23;;;;;;;;;;;25.20;50.00;;;;;;5935817;28;19937;-52
2022/05/18 13:53:26;;;;;;;;;;;25.40;50.30;;;;;;5944096;28;20147;-52
2022/05/18 13:56:31;;;;;;;;;;;25.30;50.10;;;;;;5969101;28;21163;-51
2022/05/18 13:59:33;;;;;;;;;;;25.30;50.10;;;;;;5977665;28;19933;-52
2022/05/18 14:02:36;;;;;;;;;;;25.30;50.10;;;;;;5946513;28;37491;-49
2022/05/18 14:05:40;;;;;;;;;;;25.40;50.20;;;;;;5967318;28;26037;-52
2022/05/18 14:08:42;;;;;;;;;;;25.30;50.10;;;;;;5959837;28;20062;-49
2022/05/18 14:11:56;;;;;;;;;;;25.30;50.00;;;;;;5947858;28;20703;-49
2022/05/18 14:14:57;;;;;;;;;;;25.50;50.20;;;;;;5978220;28;21273;-52
2022/05/18 14:18:21;;;;;;;;;;;25.30;50.00;;;;;;5971495;28;34632;-54
2022/05/18 14:21:41;;;;;;;;;;;25.40;50.10;;;;;;5969379;28;22373;-53
2022/05/18 14:24:44;;;;;;;;;;;25.40;50.00;;;;;;5967746;28;19928;-51
2022/05/18 14:27:48;;;;;;;;;;;25.50;50.20;;;;;;5980854;28;36291;-52
2022/05/18 14:30:49;;;;;;;;;;;25.50;50.20;;;;;;5987909;28;34236;-52
2022/05/18 14:34:01;;;;;;;;;;;25.30;49.50;;;;;;6000019;28;19930;-53
2022/05/18 14:37:10;;;;;;;;;;;25.40;50.10;;;;;;6030817;28;31737;-52
2022/05/18 14:40:12;;;;;;;;;;;25.30;50.00;;;;;;6021160;28;19935;-51
2022/05/18 14:43:15;;;;;;;;;;;25.40;50.10;;;;;;6003811;28;19929;-53
2022/05/18 14:46:21;;;;;;;;;;;25.40;50.20;;;;;;5982741;28;31482;-52
2022/05/18 14:49:23;;;;;;;;;;;25.40;50.20;;;;;;5997825;28;19929;-55
2022/05/18 14:52:29;;;;;;;;;;;25.40;50.20;;;;;;5999122;28;19935;-58
2022/05/18 14:55:35;;;;;;;;;;;25.30;50.20;;;;;;6000486;28;19952;-58
2022/05/18 14:58:38;;;;;;;;;;;25.40;50.20;;;;;;6001956;28;19979;-58
2022/05/18 15:01:41;;;;;;;;;;;25.40;50.20;;;;;;5996925;28;31334;-54
2022/05/18 15:04:47;;;;;;;;;;;25.30;50.10;;;;;;6004716;28;20969;-55
2022/05/18 15:07:51;;;;;;;;;;;25.40;50.10;;;;;;5995557;28;19988;-56
2022/05/18 15:10:54;;;;;;;;;;;25.50;50.10;;;;;;5991788;28;19929;-57
2022/05/18 15:14:03;;;;;;;;;;;25.50;50.10;;;;;;5997853;28;19946;-57
2022/05/18 15:17:13;;;;;;;;;;;25.50;50.00;;;;;;6005045;28;19965;-50
2022/05/18 15:20:17;;;;;;;;;;;25.50;49.90;;;;;;5990823;28;20063;-51
2022/05/18 15:23:32;;;;;;;;;;;25.60;49.90;;;;;;6003075;28;19929;-50
2022/05/18 15:26:35;;;;;;;;;;;25.70;49.90;;;;;;6029370;28;19929;-53
2022/05/18 15:29:36;;;;;;;;;;;25.60;49.90;;;;;;6019982;28;19929;-52
2022/05/18 15:32:39;;;;;;;;;;;25.70;50.00;;;;;;6033976;28;19929;-49
2022/05/18 15:35:43;;;;;;;;;;;25.60;49.90;;;;;;6044758;28;19964;-54
2022/05/18 15:38:47;;;;;;;;;;;25.60;50.00;;;;;;6056164;28;19928;-53
2022/05/18 15:41:48;;;;;;;;;;;25.60;50.00;;;;;;6010025;28;20146;-51
2022/05/18 15:44:51;;;;;;;;;;;25.40;49.80;;;;;;6026027;28;19929;-51
2022/05/18 15:47:54;;;;;;;;;;;25.70;50.10;;;;;;6019541;28;19979;-50
2022/05/18 15:50:57;;;;;;;;;;;25.50;50.00;;;;;;6043911;28;20051;-50
2022/05/18 15:54:00;;;;;;;;;;;25.60;50.40;;;;;;6015607;28;19935;-52
2022/05/18 15:57:01;;;;;;;;;;;25.70;50.10;;;;;;6042575;28;19929;-53
2022/05/18 16:00:03;;;;;;;;;;;25.60;50.10;;;;;;6053187;28;19936;-51
2022/05/18 16:03:14;;;;;;;;;;;25.70;50.00;;;;;;6056811;28;20147;-49
2022/05/18 16:06:16;;;;;;;;;;;25.60;49.90;;;;;;6035169;28;19930;-54
2022/05/18 16:09:22;;;;;;;;;;;25.70;49.90;;;;;;6047476;28;21665;-48
2022/05/18 16:12:23;;;;;;;;;;;25.70;49.90;;;;;;6068353;28;20131;-51
2022/05/18 16:15:25;;;;;;;;;;;25.80;50.00;;;;;;6069207;28;19929;-49
2022/05/18 16:18:28;;;;;;;;;;;25.60;49.80;;;;;;6079436;28;19936;-48
2022/05/18 16:21:30;;;;;;;;;;;25.70;50.00;;;;;;6098302;28;19936;-51
2022/05/18 16:24:34;;;;;;;;;;;25.70;50.00;;;;;;6100920;28;19936;-53
2022/05/18 16:27:37;;;;;;;;;;;25.70;49.90;;;;;;6093203;28;19936;-52
2022/05/18 16:30:38;;;;;;;;;;;25.70;49.90;;;;;;6089061;28;21203;-49
2022/05/18 16:34:00;;;;;;;;;;;25.70;49.80;;;;;;6098743;28;20442;-54
2022/05/18 16:37:01;;;;;;;;;;;25.60;49.80;;;;;;6109670;28;19929;-52
2022/05/18 16:40:04;;;;;;;;;;;25.60;49.80;;;;;;6110230;28;19980;-52
2022/05/18 16:43:07;;;;;;;;;;;25.70;49.90;;;;;;6111351;28;19929;-50
2022/05/18 16:46:09;;;;;;;;;;;25.60;49.80;;;;;;6131085;28;19998;-49
2022/05/18 16:49:11;;;;;;;;;;;25.60;49.80;;;;;;6133867;28;19929;-51
2022/05/18 16:52:12;;;;;;;;;;;25.70;49.90;;;;;;6133328;28;20808;-52
2022/05/18 16:55:15;;;;;;;;;;;25.50;49.70;;;;;;6128515;28;19951;-48
2022/05/18 16:58:16;;;;;;;;;;;25.70;49.80;;;;;;6136269;28;19929;-49
2022/05/18 17:01:19;;;;;;;;;;;25.80;49.90;;;;;;6140033;28;20063;-50
2022/05/18 17:04:21;;;;;;;;;;;25.70;49.90;;;;;;6120554;28;19929;-54
2022/05/18 17:07:23;;;;;;;;;;;25.70;49.90;;;;;;6128675;28;19928;-52
2022/05/18 17:10:24;;;;;;;;;;;25.80;50.00;;;;;;6147869;28;19929;-53
2022/05/18 17:13:26;;;;;;;;;;;25.80;49.80;;;;;;6137465;28;20048;-50
2022/05/18 17:16:28;;;;;;;;;;;25.80;49.80;;;;;;6144496;28;19935;-51
2022/05/18 17:19:30;;;;;;;;;;;25.80;49.70;;;;;;6144618;28;19945;-53
2022/05/18 17:22:33;;;;;;;;;;;26.00;49.80;;;;;;6144357;28;19928;-53
2022/05/18 17:25:35;;;;;;;;;;;25.80;49.80;;;;;;6143040;28;19975;-51
2022/05/18 17:28:38;;;;;;;;;;;25.80;49.70;;;;;;6153113;28;20035;-48
2022/05/18 17:31:41;;;;;;;;;;;25.80;49.70;;;;;;6150111;28;20852;-52
2022/05/18 17:34:42;;;;;;;;;;;25.90;49.70;;;;;;6151642;28;20863;-48
2022/05/18 17:37:44;;;;;;;;;;;25.90;49.80;;;;;;6155062;28;19925;-54
2022/05/18 17:40:49;;;;;;;;;;;25.80;49.80;;;;;;6156462;28;19937;-52
2022/05/18 17:43:50;;;;;;;;;;;25.80;49.80;;;;;;6162097;28;19941;-51
2022/05/18 17:46:52;;;;;;;;;;;25.80;49.80;;;;;;6165163;28;20023;-50
2022/05/18 17:49:54;;;;;;;;;;;25.80;49.80;;;;;;6168043;28;19929;-49
2022/05/18 17:52:55;;;;;;;;;;;25.80;49.80;;;;;;6173084;28;19929;-50
2022/05/18 17:55:57;;;;;;;;;;;25.80;49.90;;;;;;6168825;28;19987;-50
2022/05/18 17:58:58;;;;;;;;;;;25.80;49.90;;;;;;6166097;28;20044;-50
2022/05/18 18:02:02;;;;;;;;;;;26.10;50.20;;;;;;6169727;28;20962;-54
2022/05/18 18:05:05;;;;;;;;;;;25.90;50.00;;;;;;6146492;28;19928;-49
2022/05/18 18:08:07;;;;;;;;;;;25.80;50.00;;;;;;6152016;28;20118;-50
2022/05/18 18:11:09;;;;;;;;;;;25.80;50.00;;;;;;6173664;28;21896;-54
2022/05/18 18:14:10;;;;;;;;;;;25.70;50.00;;;;;;6168206;28;19929;-48
2022/05/18 18:17:14;;;;;;;;;;;25.80;50.10;;;;;;6171879;28;19935;-50
2022/05/18 18:20:19;;;;;;;;;;;25.60;50.00;;;;;;6148910;28;20019;-52